SILO ALERT LOG
| Silo ID | Alert Type | Alert Message | Silo Type | Points | Depth (mm) | Strength | Temperature (°C) | Humidity (%) | Height (mm) | Volume (㎥) | Weight (t) | Flag | Time |
|---|---|---|---|---|---|---|---|---|---|---|---|---|---|
| DJHNR01 | Humidity | 습도센서 측정값이 80% 초과 | 호퍼 | 471 | 4315 | 4916 | 3.8 | 99.9 | 11064 | 472.262 | 298.564 | 13 | 2024-01-13 07:39:32.000 |
| DJHNR04 | Temperature | 온도센서 측정값이 0도 미만 | 호퍼 | 0 | 15500 | 5058 | -1.2 | 69 | -119 | 0 | 0 | 29 | 2024-01-13 07:39:31.000 |
| DJHNR13 | Temperature | 온도센서 측정값이 0도 미만 | 호퍼 | 9 | 2898 | 3113 | -4.5 | 69.4 | 7481 | 107.423 | 67.913 | 11 | 2024-01-13 07:39:31.000 |
| DJSAD18 | Humidity | 습도센서 측정값이 80% 초과 | 평 | 119 | 1405 | 5803 | 3.9 | 80.8 | 6174 | 614.822 | 388.69 | 11 | 2024-01-13 07:39:31.000 |
| DJHNR14 | Temperature | 온도센서 측정값이 0도 미만 | 호퍼 | 37 | 3086 | 4437 | -4.9 | 73.4 | 7293 | 103.364 | 65.347 | 11 | 2024-01-13 07:39:31.000 |
| DJSAD16 | Humidity | 습도센서 측정값이 80% 초과 | 평 | 93 | 6249 | 3436 | 3.5 | 80.6 | 1330 | 132.463 | 83.743 | 11 | 2024-01-13 07:39:31.000 |
| DJHNR11 | Temperature | 온도센서 측정값이 0도 미만 | 호퍼 | 102 | 4739 | 233 | -5.5 | 76.5 | 5640 | 67.717 | 42.811 | 11 | 2024-01-13 07:39:31.000 |
| DJSSD09 | Temperature | 온도센서 측정값이 0도 미만 | 평 | 123 | 2895 | 3397 | -45.4 | 0 | 4784 | 665.921 | 420.996 | 11 | 2024-01-13 07:39:31.000 |
| DJSAD17 | Humidity | 습도센서 측정값이 80% 초과 | 평 | 437 | 3118 | 4752 | 3.1 | 81.2 | 4461 | 444.292 | 280.881 | 0 | 2024-01-13 07:39:30.000 |
| DJDJD01 | Temperature | 온도센서 측정값이 0도 미만 | 평 | 308 | 6784 | 5945 | -1.4 | 79.4 | 895 | 108.543 | 68.621 | 11 | 2024-01-13 07:39:29.000 |
| DJHNR03 | Temperature | 온도센서 상태 이상 | 호퍼 | 0 | 15500 | 0 | -999 | -999 | -119 | 0 | 0 | 31 | 2024-01-13 07:39:24.000 |
| DJSSD12 | Temperature | 온도센서 상태 이상 | 호퍼 | 0 | 11350 | 0 | -999 | -999 | -120 | 0 | 0 | 31 | 2024-01-13 07:39:24.000 |
| DJHNR12 | Temperature | 온도센서 측정값이 0도 미만 | 호퍼 | 0 | 10500 | 0 | -3.1 | 78.6 | -120 | 0 | 0 | 31 | 2024-01-13 07:39:23.000 |
| DJSAD01 | Humidity | 습도센서 측정값이 80% 초과 | 평 | 472 | 1485 | 7328 | 0.8 | 86.7 | 7294 | 301.976 | 190.909 | 0 | 2024-01-13 06:39:40.000 |
| DJSAD03 | Humidity | 습도센서 측정값이 80% 초과 | 평 | 445 | 1669 | 6215 | 2.2 | 84.5 | 7110 | 294.335 | 186.079 | 0 | 2024-01-13 06:39:39.000 |
| DJDJD03 | Humidity | 습도센서 측정값이 80% 초과 | 평 | 70 | 4887 | 5038 | 1.3 | 82.4 | 2792 | 338.319 | 213.885 | 0 | 2024-01-13 06:39:39.000 |
| DJSAD02 | Humidity | 습도센서 측정값이 80% 초과 | 평 | 387 | 1136 | 4265 | 1.7 | 86.1 | 7643 | 316.404 | 200.031 | 11 | 2024-01-13 06:39:38.000 |
| DJHNR08 | Temperature | 온도센서 측정값이 0도 미만 | 평 | 375 | 5406 | 2193 | -1 | 66.1 | 2273 | 323.452 | 204.486 | 11 | 2024-01-13 06:39:36.000 |
| DJSAD11 | Humidity | 습도센서 측정값이 80% 초과 | 평 | 327 | 1645 | 3295 | 1 | 80.4 | 5934 | 844.467 | 533.872 | 11 | 2024-01-13 06:39:35.000 |
| DJHNR01 | Humidity | 습도센서 측정값이 80% 초과 | 호퍼 | 471 | 4315 | 4916 | 3.9 | 99.9 | 11064 | 472.262 | 298.564 | 13 | 2024-01-13 06:39:33.000 |
[첫 페이지] [9974] [9975] [9976] [9977] 9978 [9979] [9980] [9981] [9982] [마지막 페이지]